Time;durP1;ratioP1;P1;durP2;ratioP2;P2;SDS_P1;SDS_P2;PMS_P1;PMS_P2;Temp;Humidity;BMP_temperature;BMP_pressure;BME280_temperature;BME280_humidity;BME280_pressure;Samples;Min_cycle;Max_cycle;Signal;HPM_P1;HPM_P2
2021/12/21 00:00:50;;;;;;;14.20;7.00;;;-0.60;99.90;;;;;;5022323;28;20300;-77
2021/12/21 00:03:36;;;;;;;9.15;6.72;;;-0.60;99.90;;;;;;5009541;28;20229;-77
2021/12/21 00:06:21;;;;;;;14.95;7.47;;;-0.70;99.90;;;;;;5009929;28;20562;-77
2021/12/21 00:09:08;;;;;;;11.60;6.65;;;-0.60;99.90;;;;;;5008741;28;20288;-77
2021/12/21 00:11:54;;;;;;;14.23;7.22;;;-0.70;99.90;;;;;;5023537;28;20212;-77
2021/12/21 00:14:49;;;;;;;11.15;6.90;;;-0.70;99.90;;;;;;5017876;28;20218;-77
2021/12/21 00:17:51;;;;;;;12.02;6.95;;;-0.60;99.90;;;;;;5017579;28;20598;-77
2021/12/21 00:20:49;;;;;;;14.63;6.63;;;-0.60;99.90;;;;;;5003207;28;20198;-78
2021/12/21 00:23:37;;;;;;;14.55;7.15;;;-0.60;99.90;;;;;;5014839;28;20280;-76
2021/12/21 00:26:24;;;;;;;14.27;8.00;;;-0.50;99.90;;;;;;5008010;28;20683;-76
2021/12/21 00:29:10;;;;;;;12.52;6.60;;;-0.50;99.90;;;;;;5010718;28;20193;-77
2021/12/21 00:31:55;;;;;;;11.23;6.40;;;-0.50;99.90;;;;;;5020400;28;20574;-77
2021/12/21 00:34:41;;;;;;;14.15;7.28;;;-0.80;99.90;;;;;;5014658;28;20645;-77
2021/12/21 00:37:28;;;;;;;10.23;6.20;;;-0.90;99.90;;;;;;5007466;28;20221;-76
2021/12/21 00:40:14;;;;;;;9.15;6.72;;;-0.90;99.90;;;;;;5020775;28;20210;-77
2021/12/21 00:43:02;;;;;;;9.50;5.93;;;-0.80;99.90;;;;;;5022287;28;20225;-76
2021/12/21 00:45:48;;;;;;;13.30;6.45;;;-0.70;99.90;;;;;;5026492;28;20206;-77
2021/12/21 00:48:35;;;;;;;14.35;6.13;;;-0.70;99.90;;;;;;5006812;28;20206;-78
2021/12/21 00:51:24;;;;;;;11.80;6.07;;;-0.80;99.90;;;;;;5004752;28;20210;-77
2021/12/21 00:54:10;;;;;;;10.52;6.50;;;-0.70;99.90;;;;;;5021542;28;20299;-77
2021/12/21 00:56:56;;;;;;;11.98;6.43;;;-0.80;99.90;;;;;;5010404;28;20304;-77
2021/12/21 00:59:43;;;;;;;9.23;5.80;;;-0.90;99.90;;;;;;5015735;28;20202;-77
2021/12/21 01:02:28;;;;;;;16.75;6.65;;;-0.90;99.90;;;;;;5010900;28;20210;-76
2021/12/21 01:05:21;;;;;;;8.73;6.38;;;-0.80;99.90;;;;;;5009258;28;20202;-76
2021/12/21 01:08:08;;;;;;;7.70;5.28;;;-0.70;99.90;;;;;;5001928;28;20198;-77
2021/12/21 01:11:08;;;;;;;8.32;5.50;;;-0.70;99.90;;;;;;5012490;28;20702;-77
2021/12/21 01:14:04;;;;;;;12.88;5.93;;;-0.70;99.90;;;;;;5025467;28;20329;-77
2021/12/21 01:17:02;;;;;;;9.35;5.95;;;-0.90;99.90;;;;;;5014038;28;20214;-77
2021/12/21 01:19:58;;;;;;;11.85;6.68;;;-0.80;99.90;;;;;;5018806;28;20489;-77
2021/12/21 01:23:03;;;;;;;10.20;6.32;;;-0.90;99.90;;;;;;5011685;28;20670;-77
2021/12/21 01:25:55;;;;;;;10.52;6.90;;;-0.90;99.90;;;;;;5016897;28;20210;-77
2021/12/21 01:28:48;;;;;;;13.82;6.72;;;-0.80;99.90;;;;;;5005923;28;20740;-77
2021/12/21 01:31:43;;;;;;;12.30;6.75;;;-0.90;99.90;;;;;;5016279;28;20862;-76
2021/12/21 01:34:41;;;;;;;14.73;6.97;;;-0.90;99.90;;;;;;5013002;28;20229;-76
2021/12/21 01:37:35;;;;;;;8.25;5.82;;;-0.90;99.90;;;;;;5002061;28;20218;-76
2021/12/21 01:40:31;;;;;;;10.55;6.70;;;-1.10;99.90;;;;;;5016831;28;20337;-77
2021/12/21 01:43:25;;;;;;;10.95;7.28;;;-1.10;99.90;;;;;;5005919;28;20230;-76
2021/12/21 01:52:21;;;;;;;10.35;5.65;;;-1.00;99.90;;;;;;5014932;28;20241;-78
2021/12/21 01:55:07;;;;;;;11.02;5.88;;;-1.00;99.90;;;;;;5008716;28;20201;-77
2021/12/21 01:57:53;;;;;;;12.55;5.65;;;-1.00;99.90;;;;;;5012545;28;20229;-76
2021/12/21 02:00:40;;;;;;;10.88;5.70;;;-1.10;99.90;;;;;;5021262;28;20202;-77
2021/12/21 02:03:26;;;;;;;10.60;5.97;;;-1.00;99.90;;;;;;5029236;22;20225;-73
2021/12/21 02:06:12;;;;;;;9.45;5.32;;;-0.90;99.90;;;;;;5055006;28;20200;-73
2021/12/21 02:08:59;;;;;;;8.98;5.10;;;-0.90;99.90;;;;;;5050555;28;20225;-73
2021/12/21 02:11:44;;;;;;;13.80;6.32;;;-1.00;99.90;;;;;;5058029;28;20208;-73
2021/12/21 02:14:30;;;;;;;9.90;6.82;;;-1.00;99.90;;;;;;5043931;28;20810;-73
2021/12/21 02:17:40;;;;;;;13.63;6.05;;;-1.10;99.90;;;;;;5035692;28;20287;-73
2021/12/21 02:20:40;;;;;;;9.52;5.50;;;-1.00;99.90;;;;;;5029581;28;20328;-73
2021/12/21 02:23:31;;;;;;;11.45;6.78;;;-1.10;99.90;;;;;;5035159;28;20201;-74
2021/12/21 02:26:38;;;;;;;23.02;7.10;;;-1.20;99.90;;;;;;5033263;28;20201;-73
2021/12/21 02:29:28;;;;;;;9.98;5.20;;;-1.30;99.90;;;;;;5041959;28;20212;-73
2021/12/21 02:32:15;;;;;;;10.27;5.35;;;-1.30;99.90;;;;;;5035552;28;20338;-73
2021/12/21 02:35:00;;;;;;;10.07;6.40;;;-1.30;99.90;;;;;;5036120;28;20295;-74
2021/12/21 02:37:48;;;;;;;8.38;4.65;;;-1.30;99.90;;;;;;5032253;28;20620;-74
2021/12/21 02:40:34;;;;;;;7.35;4.95;;;-1.20;99.90;;;;;;5039592;28;20264;-73
2021/12/21 02:43:20;;;;;;;9.77;5.80;;;-1.30;99.90;;;;;;5032470;28;20209;-74
2021/12/21 02:46:07;;;;;;;10.85;5.38;;;-1.40;99.90;;;;;;5026178;28;20277;-73
2021/12/21 02:48:53;;;;;;;20.05;5.38;;;-1.40;99.90;;;;;;5045279;28;20330;-73
2021/12/21 02:51:40;;;;;;;9.90;5.05;;;-1.20;99.90;;;;;;5046661;28;20197;-73
2021/12/21 02:54:27;;;;;;;8.43;4.78;;;-1.10;99.90;;;;;;5029633;28;20229;-73
2021/12/21 02:57:13;;;;;;;12.07;5.88;;;-1.20;99.90;;;;;;5026005;28;20264;-73
2021/12/21 03:00:00;;;;;;;13.85;5.25;;;-1.30;99.90;;;;;;5025396;28;20336;-73
2021/12/21 03:02:46;;;;;;;9.15;5.70;;;-1.50;99.90;;;;;;5037733;28;20201;-73
2021/12/21 03:05:32;;;;;;;9.20;5.15;;;-1.40;99.90;;;;;;5037376;28;20218;-73
2021/12/21 03:08:21;;;;;;;9.45;4.68;;;-1.40;99.90;;;;;;5026053;28;20665;-73
2021/12/21 03:11:16;;;;;;;12.32;4.47;;;-1.50;99.90;;;;;;5024989;28;20341;-74
2021/12/21 03:14:08;;;;;;;6.93;4.60;;;-1.40;99.90;;;;;;5034200;28;20812;-73
2021/12/21 03:16:54;;;;;;;12.00;4.60;;;-1.40;99.90;;;;;;5032520;28;20210;-73
2021/12/21 03:19:40;;;;;;;10.48;4.82;;;-1.30;99.90;;;;;;5036030;28;20551;-74
2021/12/21 03:22:26;;;;;;;13.00;5.68;;;-1.30;99.90;;;;;;5053114;28;20196;-73
2021/12/21 03:25:12;;;;;;;5.82;4.30;;;-1.30;99.90;;;;;;5035694;28;20311;-73
2021/12/21 03:27:59;;;;;;;8.52;5.22;;;-1.40;99.90;;;;;;5042618;28;20205;-73
2021/12/21 03:30:45;;;;;;;10.27;5.47;;;-1.40;99.90;;;;;;5053007;28;20267;-73
2021/12/21 03:33:31;;;;;;;11.15;4.57;;;-1.40;99.90;;;;;;5052735;28;20220;-74
2021/12/21 03:36:17;;;;;;;8.73;4.50;;;-1.40;99.90;;;;;;5036048;28;20202;-73
2021/12/21 03:39:07;;;;;;;7.80;5.15;;;-1.40;99.90;;;;;;5032996;28;20364;-73
2021/12/21 03:41:57;;;;;;;13.25;4.95;;;-1.40;99.90;;;;;;5031490;28;20577;-73
2021/12/21 03:44:45;;;;;;;12.77;4.95;;;-1.40;99.90;;;;;;5031919;28;20288;-74
2021/12/21 03:47:31;;;;;;;8.18;3.90;;;-1.50;99.90;;;;;;5032478;28;20198;-73
2021/12/21 03:50:19;;;;;;;10.75;4.80;;;-1.60;99.90;;;;;;5032960;28;20201;-74
2021/12/21 03:53:05;;;;;;;10.75;4.78;;;-1.70;99.90;;;;;;5027860;28;20284;-73
2021/12/21 03:56:01;;;;;;;12.98;4.88;;;-1.60;99.90;;;;;;5016145;28;20612;-74
2021/12/21 03:58:47;;;;;;;9.30;4.60;;;-1.60;99.90;;;;;;5050186;28;20220;-73
2021/12/21 04:01:35;;;;;;;9.55;4.70;;;-1.60;99.90;;;;;;5052731;28;20677;-74
2021/12/21 04:04:22;;;;;;;9.88;4.90;;;-1.80;99.90;;;;;;5051788;28;20248;-73
2021/12/21 04:07:08;;;;;;;12.27;4.88;;;-1.80;99.90;;;;;;5031128;28;20284;-74
2021/12/21 04:09:54;;;;;;;15.38;5.13;;;-1.70;99.90;;;;;;5032489;28;20217;-73
2021/12/21 04:12:40;;;;;;;15.82;5.35;;;-1.70;99.90;;;;;;5032180;28;20346;-73
2021/12/21 04:15:28;;;;;;;7.75;4.55;;;-1.80;99.90;;;;;;5028506;28;20313;-73
2021/12/21 04:18:18;;;;;;;11.77;5.68;;;-1.80;99.90;;;;;;5031820;28;20726;-73
2021/12/21 04:21:05;;;;;;;13.23;5.25;;;-1.80;99.90;;;;;;5039762;28;20200;-73
2021/12/21 04:23:50;;;;;;;7.70;4.65;;;-1.60;99.90;;;;;;5034602;28;20311;-73
2021/12/21 04:26:36;;;;;;;7.85;4.30;;;-1.70;99.90;;;;;;5030121;28;20206;-73
2021/12/21 04:29:22;;;;;;;9.93;4.30;;;-1.70;99.90;;;;;;5035253;28;20696;-73
2021/12/21 04:32:08;;;;;;;8.13;4.45;;;-1.80;99.90;;;;;;5039892;28;20197;-73
2021/12/21 04:34:55;;;;;;;9.38;4.57;;;-1.90;99.90;;;;;;5039974;28;20613;-73
2021/12/21 04:37:45;;;;;;;11.18;4.32;;;-2.00;99.90;;;;;;5032183;28;20229;-73
2021/12/21 04:40:40;;;;;;;10.57;4.63;;;-1.80;99.90;;;;;;5032321;28;20350;-74
2021/12/21 04:43:26;;;;;;;14.90;5.90;;;-1.80;99.90;;;;;;5029829;28;20209;-73
2021/12/21 04:46:12;;;;;;;9.60;4.97;;;-1.90;99.90;;;;;;5028972;28;20204;-73
2021/12/21 04:48:57;;;;;;;9.55;4.95;;;-1.80;99.90;;;;;;5025001;28;20285;-73
2021/12/21 04:51:44;;;;;;;13.82;5.35;;;-1.90;99.90;;;;;;5012423;28;20198;-74
2021/12/21 04:54:30;;;;;;;12.13;5.53;;;-1.90;99.90;;;;;;5014216;28;20218;-74
2021/12/21 04:57:16;;;;;;;8.00;5.35;;;-1.90;99.90;;;;;;5037096;28;20674;-73
2021/12/21 05:00:01;;;;;;;10.50;5.47;;;-1.90;99.90;;;;;;5051519;28;20563;-73
2021/12/21 05:02:47;;;;;;;8.70;5.40;;;-1.80;99.90;;;;;;5051358;28;20232;-73
2021/12/21 05:05:33;;;;;;;9.50;5.57;;;-1.90;99.90;;;;;;5030877;28;20683;-73
2021/12/21 05:08:24;;;;;;;9.90;5.00;;;-1.80;99.90;;;;;;5031839;28;20331;-73
2021/12/21 05:11:09;;;;;;;14.40;5.63;;;-1.90;99.90;;;;;;5030100;28;20260;-73
2021/12/21 05:13:54;;;;;;;9.07;4.70;;;-2.00;99.90;;;;;;5017854;28;20332;-73
2021/12/21 05:16:40;;;;;;;8.65;5.03;;;-2.10;99.90;;;;;;5011876;28;20683;-74
2021/12/21 05:19:26;;;;;;;8.93;4.93;;;-2.10;99.90;;;;;;5011796;28;20225;-73
2021/12/21 05:22:12;;;;;;;12.02;4.90;;;-2.10;99.90;;;;;;5019712;28;20209;-74
2021/12/21 05:25:00;;;;;;;6.85;4.72;;;-2.00;99.90;;;;;;5035512;28;20225;-73
2021/12/21 05:27:46;;;;;;;6.10;4.38;;;-2.00;99.90;;;;;;5038299;28;20232;-73
2021/12/21 05:30:34;;;;;;;14.68;4.80;;;-1.90;99.90;;;;;;5037266;28;20212;-74
2021/12/21 05:33:19;;;;;;;6.85;3.90;;;-1.80;99.90;;;;;;5035879;28;20263;-74
2021/12/21 05:36:05;;;;;;;9.38;4.28;;;-1.90;99.90;;;;;;5047022;28;20286;-74
2021/12/21 05:38:57;;;;;;;10.18;4.93;;;-1.80;99.90;;;;;;5052804;28;20611;-73
2021/12/21 05:41:50;;;;;;;11.60;5.07;;;-1.80;99.90;;;;;;5042045;28;20210;-74
2021/12/21 05:44:35;;;;;;;12.25;5.13;;;-1.80;99.90;;;;;;5036423;28;20806;-74
2021/12/21 05:47:21;;;;;;;10.50;4.50;;;-1.90;99.90;;;;;;5042901;28;20204;-73
2021/12/21 05:50:11;;;;;;;13.57;6.45;;;-1.90;99.90;;;;;;5040866;28;20193;-73
2021/12/21 05:52:57;;;;;;;8.68;4.82;;;-1.90;99.90;;;;;;5045328;28;20204;-73
2021/12/21 05:55:42;;;;;;;9.57;5.00;;;-1.90;99.90;;;;;;5039745;28;20275;-73
2021/12/21 05:58:29;;;;;;;5.10;4.00;;;-2.00;99.90;;;;;;5033400;28;20720;-73
2021/12/21 06:01:15;;;;;;;10.48;4.60;;;-2.00;99.90;;;;;;5048986;28;20217;-73
2021/12/21 06:04:01;;;;;;;10.13;4.20;;;-2.00;99.90;;;;;;5037258;28;20741;-73
2021/12/21 06:06:47;;;;;;;7.35;4.53;;;-2.00;99.90;;;;;;5036459;28;20393;-73
2021/12/21 06:09:32;;;;;;;8.07;4.72;;;-2.00;99.90;;;;;;5041137;28;20339;-74
2021/12/21 06:12:32;;;;;;;6.68;4.00;;;-1.90;99.90;;;;;;5030504;28;20200;-73
2021/12/21 06:15:28;;;;;;;9.30;5.35;;;-1.90;99.90;;;;;;5038191;28;20229;-74
2021/12/21 06:27:29;;;;;;;12.52;5.10;;;-1.90;99.90;;;;;;5025982;28;20893;-73
2021/12/21 06:30:15;;;;;;;9.32;5.47;;;-2.00;99.90;;;;;;5032998;28;20204;-73
2021/12/21 06:33:03;;;;;;;10.30;5.43;;;-2.10;99.90;;;;;;5034022;28;20217;-73
2021/12/21 06:35:49;;;;;;;8.10;4.97;;;-2.10;99.90;;;;;;5045136;28;20210;-73
2021/12/21 06:38:35;;;;;;;11.65;4.60;;;-1.90;99.90;;;;;;5036910;28;20737;-73
2021/12/21 06:41:21;;;;;;;8.57;4.65;;;-2.10;99.90;;;;;;5043642;28;20674;-73
2021/12/21 06:44:10;;;;;;;12.05;5.45;;;-2.20;99.90;;;;;;5025080;28;20228;-73
2021/12/21 06:47:09;;;;;;;11.25;4.97;;;-2.10;99.90;;;;;;5051598;28;20213;-73
2021/12/21 06:52:59;;;;;;;11.75;5.03;;;-2.10;99.90;;;;;;5037893;28;20213;-73
2021/12/21 06:55:45;;;;;;;10.45;6.10;;;-2.10;99.90;;;;;;5038560;28;20225;-73
2021/12/21 06:58:30;;;;;;;10.15;5.00;;;-2.20;99.90;;;;;;5029400;28;20715;-73
2021/12/21 07:01:19;;;;;;;13.20;5.22;;;-2.20;99.90;;;;;;5037198;28;20571;-73
2021/12/21 07:04:05;;;;;;;9.52;4.97;;;-2.20;99.90;;;;;;5025373;28;20264;-73
2021/12/21 07:06:54;;;;;;;9.65;4.57;;;-2.10;99.90;;;;;;5047813;28;20795;-73
2021/12/21 07:09:44;;;;;;;8.50;6.07;;;-2.00;99.90;;;;;;5039719;28;20227;-73
2021/12/21 07:18:00;;;;;;;13.80;4.70;;;-2.00;99.90;;;;;;5040069;28;20691;-73
2021/12/21 07:18:45;;;;;;;9.90;5.40;;;-1.80;99.90;;;;;;5041868;28;20228;-73
2021/12/21 07:21:31;;;;;;;10.15;5.50;;;-2.00;99.90;;;;;;5042341;28;20208;-73
2021/12/21 07:24:18;;;;;;;14.32;6.20;;;-2.10;99.90;;;;;;5039220;28;20734;-73
2021/12/21 07:27:05;;;;;;;25.50;12.18;;;-2.20;99.90;;;;;;5046428;28;20251;-73
2021/12/21 07:29:51;;;;;;;18.10;10.38;;;-2.10;99.90;;;;;;5050306;28;20193;-74
2021/12/21 07:32:36;;;;;;;24.60;11.85;;;-2.20;99.90;;;;;;5038248;28;20236;-73
2021/12/21 07:35:22;;;;;;;17.50;9.82;;;-2.30;99.90;;;;;;5033196;28;20774;-73
2021/12/21 07:38:08;;;;;;;21.55;11.15;;;-2.30;99.90;;;;;;5025731;28;20213;-73
2021/12/21 07:40:55;;;;;;;23.70;12.55;;;-2.30;99.90;;;;;;5013368;28;20281;-73
2021/12/21 07:43:41;;;;;;;19.98;13.35;;;-2.30;99.90;;;;;;5022596;28;20660;-73
2021/12/21 07:46:26;;;;;;;23.92;13.15;;;-2.20;99.90;;;;;;5032938;28;20592;-73
2021/12/21 07:49:12;;;;;;;24.35;12.02;;;-2.00;99.90;;;;;;5033064;28;20209;-73
2021/12/21 07:51:58;;;;;;;24.10;12.82;;;-1.90;99.90;;;;;;5031275;28;20205;-73
2021/12/21 07:54:44;;;;;;;25.73;15.00;;;-1.90;99.90;;;;;;5011788;28;20342;-73
2021/12/21 07:57:32;;;;;;;23.13;14.15;;;-2.00;99.90;;;;;;5025779;28;20294;-73
2021/12/21 08:00:18;;;;;;;18.48;11.40;;;-2.00;99.90;;;;;;5029051;28;20761;-73
2021/12/21 08:03:05;;;;;;;20.75;12.45;;;-2.00;99.90;;;;;;5021192;28;20230;-73
2021/12/21 08:05:54;;;;;;;14.07;9.07;;;-2.00;99.90;;;;;;5013565;28;20253;-74
2021/12/21 08:08:43;;;;;;;13.43;7.95;;;-1.80;99.90;;;;;;5012569;28;20197;-73
2021/12/21 08:12:11;;;;;;;12.82;8.93;;;-1.80;99.90;;;;;;5012893;28;20731;-74
2021/12/21 08:14:36;;;;;;;19.75;8.23;;;-1.70;99.90;;;;;;5011982;28;20230;-74
2021/12/21 08:17:22;;;;;;;19.77;10.40;;;-1.70;99.90;;;;;;5023923;28;20201;-74
2021/12/21 08:20:08;;;;;;;19.70;10.20;;;-1.60;99.90;;;;;;5032353;28;20221;-74
2021/12/21 08:22:54;;;;;;;18.73;10.80;;;-1.50;99.90;;;;;;5029272;28;20204;-74
2021/12/21 08:25:39;;;;;;;28.70;14.70;;;-1.60;99.90;;;;;;5030314;28;20329;-74
2021/12/21 08:28:26;;;;;;;28.27;15.23;;;-1.60;99.90;;;;;;5036984;28;20539;-74
2021/12/21 08:31:13;;;;;;;28.77;16.27;;;-1.70;99.90;;;;;;5032863;28;20248;-73
2021/12/21 08:33:59;;;;;;;25.45;15.57;;;-1.70;99.90;;;;;;5036915;28;20605;-74
2021/12/21 08:36:44;;;;;;;26.08;14.52;;;-1.70;99.90;;;;;;5052002;28;20234;-73
2021/12/21 08:39:37;;;;;;;17.85;11.70;;;-1.80;99.90;;;;;;5035372;28;20284;-74
2021/12/21 08:42:25;;;;;;;16.80;10.88;;;-1.70;99.90;;;;;;5022144;28;20203;-73
2021/12/21 08:45:10;;;;;;;17.48;10.30;;;-1.80;99.90;;;;;;5012242;28;20225;-74
2021/12/21 08:47:59;;;;;;;13.48;8.13;;;-1.70;99.90;;;;;;5012013;28;20205;-74
2021/12/21 08:50:46;;;;;;;10.75;6.65;;;-1.70;99.90;;;;;;5021143;28;20193;-74
2021/12/21 08:53:31;;;;;;;13.60;8.57;;;-1.70;99.90;;;;;;5029212;28;20228;-74
2021/12/21 08:56:17;;;;;;;23.35;8.80;;;-1.70;99.90;;;;;;5031990;28;20328;-74
2021/12/21 08:59:03;;;;;;;12.98;8.65;;;-1.60;99.90;;;;;;5036081;28;20255;-73
2021/12/21 09:01:51;;;;;;;13.93;8.52;;;-1.50;99.90;;;;;;5037993;28;20202;-74
2021/12/21 09:04:39;;;;;;;13.88;7.95;;;-1.50;99.90;;;;;;5011261;28;20229;-73
2021/12/21 09:07:25;;;;;;;20.95;9.25;;;-1.40;99.90;;;;;;5011701;28;20566;-74
2021/12/21 09:10:12;;;;;;;24.02;10.43;;;-1.40;99.90;;;;;;5011870;28;20194;-74
2021/12/21 09:12:58;;;;;;;20.27;9.60;;;-1.40;99.90;;;;;;5011360;28;20329;-74
2021/12/21 09:15:44;;;;;;;17.98;10.63;;;-1.30;99.90;;;;;;5013043;28;20267;-73
2021/12/21 09:18:30;;;;;;;16.83;10.73;;;-1.30;99.90;;;;;;5022615;28;20617;-74
2021/12/21 09:21:17;;;;;;;20.42;11.40;;;-1.20;99.90;;;;;;5012884;28;20311;-74
2021/12/21 09:24:03;;;;;;;16.52;10.40;;;-1.30;99.90;;;;;;5030953;28;20715;-74
2021/12/21 09:26:48;;;;;;;22.15;13.52;;;-1.10;99.90;;;;;;5033277;28;20344;-74
2021/12/21 09:29:34;;;;;;;22.05;12.40;;;-1.10;99.90;;;;;;5049854;28;20335;-74
2021/12/21 09:32:20;;;;;;;16.85;10.88;;;-1.00;99.90;;;;;;5032322;28;20209;-74
2021/12/21 09:35:07;;;;;;;18.30;10.80;;;-1.00;99.90;;;;;;5034887;28;20267;-74
2021/12/21 09:37:55;;;;;;;22.13;11.77;;;-1.00;99.90;;;;;;5032302;28;20225;-73
2021/12/21 09:40:41;;;;;;;17.73;10.77;;;-0.90;99.90;;;;;;5036696;28;20225;-74
2021/12/21 09:43:27;;;;;;;18.38;10.68;;;-0.80;99.90;;;;;;5028182;28;20585;-74
2021/12/21 09:46:13;;;;;;;16.02;11.35;;;-0.70;99.90;;;;;;5044194;28;20196;-74
2021/12/21 09:48:59;;;;;;;19.70;11.20;;;-0.60;99.90;;;;;;5032807;28;20332;-74
2021/12/21 09:51:45;;;;;;;22.35;12.23;;;-0.40;99.90;;;;;;5029783;28;20694;-73
2021/12/21 09:54:34;;;;;;;20.25;12.25;;;-0.40;99.90;;;;;;5031044;28;20213;-74
2021/12/21 09:57:21;;;;;;;22.40;11.80;;;-0.30;99.90;;;;;;5037019;28;20327;-75
2021/12/21 10:00:11;;;;;;;15.52;10.23;;;-0.20;99.90;;;;;;5036113;28;20289;-74
2021/12/21 10:03:02;;;;;;;20.58;12.02;;;-0.10;99.90;;;;;;5028735;28;20214;-74
2021/12/21 10:05:48;;;;;;;28.77;12.05;;;-0.10;99.90;;;;;;5031213;28;20214;-73
2021/12/21 10:08:35;;;;;;;20.58;11.85;;;0.00;99.90;;;;;;5011359;28;20253;-74
2021/12/21 10:11:23;;;;;;;20.95;12.63;;;0.10;99.90;;;;;;5011985;28;20206;-74
2021/12/21 10:14:09;;;;;;;23.95;15.32;;;0.30;99.90;;;;;;5010806;28;20313;-73
2021/12/21 10:17:02;;;;;;;16.35;11.88;;;0.50;99.90;;;;;;5011438;28;20209;-74
2021/12/21 10:19:47;;;;;;;22.73;13.60;;;0.50;99.90;;;;;;5021020;28;20225;-74
2021/12/21 10:22:32;;;;;;;21.98;12.02;;;0.70;99.90;;;;;;5047396;28;20217;-74
2021/12/21 10:25:18;;;;;;;21.10;12.95;;;0.80;99.90;;;;;;5042335;28;20805;-74
2021/12/21 10:28:05;;;;;;;22.60;11.43;;;1.20;99.90;;;;;;5034076;28;20201;-73
2021/12/21 10:30:53;;;;;;;18.08;10.73;;;1.70;99.90;;;;;;5041791;28;20778;-73
2021/12/21 10:33:40;;;;;;;22.42;9.07;;;2.40;99.90;;;;;;5052124;28;20228;-74
2021/12/21 10:36:29;;;;;;;18.02;9.75;;;3.00;99.90;;;;;;5037448;28;20198;-74
2021/12/21 10:39:21;;;;;;;16.50;10.35;;;3.70;99.90;;;;;;5028776;28;20323;-73
2021/12/21 10:42:08;;;;;;;14.88;9.02;;;4.30;99.90;;;;;;5030585;28;20197;-74
2021/12/21 10:45:04;;;;;;;13.88;7.35;;;4.90;99.90;;;;;;5037319;28;20287;-74
2021/12/21 10:47:49;;;;;;;8.82;5.60;;;5.60;99.90;;;;;;5053842;28;20208;-74
2021/12/21 10:50:36;;;;;;;13.23;5.53;;;6.30;99.90;;;;;;5038226;28;20202;-74
2021/12/21 10:53:24;;;;;;;12.73;5.30;;;6.80;99.90;;;;;;5014022;28;20573;-72
2021/12/21 10:56:10;;;;;;;9.38;5.82;;;7.10;99.90;;;;;;5016864;28;20687;-73
2021/12/21 10:58:56;;;;;;;8.48;4.93;;;7.40;99.90;;;;;;5052348;28;20347;-74
2021/12/21 11:01:45;;;;;;;7.82;4.78;;;7.70;96.30;;;;;;5019089;28;20686;-74
2021/12/21 11:04:36;;;;;;;9.48;4.03;;;7.80;93.20;;;;;;5013757;28;20234;-74
2021/12/21 11:07:28;;;;;;;7.13;3.95;;;7.90;92.00;;;;;;5014041;28;20273;-74
2021/12/21 11:10:20;;;;;;;5.07;4.00;;;7.70;91.10;;;;;;5014891;28;20588;-74
2021/12/21 11:13:07;;;;;;;9.45;4.55;;;7.40;92.40;;;;;;5013477;28;20760;-74
2021/12/21 11:15:56;;;;;;;10.98;4.90;;;7.10;93.40;;;;;;5014032;28;20222;-74
2021/12/21 11:18:42;;;;;;;7.18;4.30;;;6.80;94.90;;;;;;5013854;28;20198;-74
2021/12/21 11:21:30;;;;;;;7.53;4.03;;;6.50;95.80;;;;;;5015798;28;20608;-73
2021/12/21 11:24:19;;;;;;;7.95;4.93;;;6.20;98.00;;;;;;5037298;28;20220;-74
2021/12/21 11:27:05;;;;;;;7.55;4.80;;;5.90;99.90;;;;;;5032061;28;20339;-74
2021/12/21 11:29:53;;;;;;;8.32;4.10;;;5.70;99.90;;;;;;5024051;28;20344;-74
2021/12/21 11:32:43;;;;;;;8.65;4.57;;;5.40;99.90;;;;;;5036669;28;20569;-73
2021/12/21 11:38:35;;;;;;;7.75;4.57;;;4.90;99.90;;;;;;5025562;28;20237;-75
2021/12/21 11:41:22;;;;;;;9.38;6.20;;;4.70;99.90;;;;;;5035513;28;20243;-73
2021/12/21 11:44:14;;;;;;;8.70;4.40;;;4.50;99.90;;;;;;5023607;28;20683;-74
2021/12/21 11:47:02;;;;;;;10.02;4.50;;;4.30;99.90;;;;;;5047759;28;20197;-74
2021/12/21 11:49:50;;;;;;;8.00;4.78;;;4.20;99.90;;;;;;5039495;28;20580;-74
2021/12/21 11:52:46;;;;;;;9.70;5.20;;;4.10;99.90;;;;;;5048487;28;20200;-74
2021/12/21 11:55:33;;;;;;;9.05;4.88;;;4.00;99.90;;;;;;5047733;28;20347;-74
2021/12/21 11:58:21;;;;;;;8.38;5.13;;;4.00;99.90;;;;;;5041083;28;20209;-74
2021/12/21 12:01:16;;;;;;;7.97;4.25;;;4.00;99.90;;;;;;5036958;28;20233;-73
2021/12/21 12:04:04;;;;;;;8.18;4.40;;;3.90;99.90;;;;;;5014540;28;20323;-74
2021/12/21 12:06:52;;;;;;;11.43;4.80;;;3.90;99.90;;;;;;5049147;28;20200;-74
2021/12/21 12:09:39;;;;;;;7.40;4.82;;;3.90;99.90;;;;;;5025542;28;20210;-74
2021/12/21 12:12:29;;;;;;;9.35;5.63;;;4.00;99.90;;;;;;5035750;28;20332;-74
2021/12/21 12:15:16;;;;;;;11.32;4.68;;;4.20;99.90;;;;;;5026646;28;20220;-74
2021/12/21 12:18:05;;;;;;;9.48;4.93;;;4.30;99.90;;;;;;5037747;28;20601;-74
2021/12/21 12:20:51;;;;;;;14.27;5.55;;;4.30;99.90;;;;;;5028083;28;20284;-74
2021/12/21 12:23:47;;;;;;;13.43;6.15;;;4.40;99.90;;;;;;5046883;28;20217;-74
2021/12/21 12:26:36;;;;;;;8.13;4.70;;;4.50;99.90;;;;;;5032000;28;20686;-74
2021/12/21 12:29:22;;;;;;;10.80;5.10;;;4.90;99.90;;;;;;5031789;28;20560;-73
2021/12/21 12:32:08;;;;;;;5.95;4.10;;;5.60;99.90;;;;;;5031866;28;20201;-73
2021/12/21 12:35:02;;;;;;;10.50;4.53;;;6.50;99.90;;;;;;5048638;28;20773;-74
2021/12/21 12:37:50;;;;;;;7.55;5.10;;;7.30;95.90;;;;;;5037505;28;20326;-74
2021/12/21 12:40:41;;;;;;;7.40;4.55;;;8.10;91.20;;;;;;5019387;28;20356;-74
2021/12/21 12:43:30;;;;;;;7.50;4.40;;;8.50;84.10;;;;;;5033949;28;20324;-73
2021/12/21 12:46:25;;;;;;;7.77;4.10;;;9.00;76.70;;;;;;5044469;28;20205;-74
2021/12/21 12:49:11;;;;;;;7.63;4.30;;;9.90;66.70;;;;;;5034552;28;20436;-76
2021/12/21 12:52:06;;;;;;;9.43;5.13;;;10.60;58.40;;;;;;5038178;28;20444;-74
2021/12/21 12:54:53;;;;;;;8.07;4.60;;;11.50;51.30;;;;;;5039286;28;20937;-74
2021/12/21 12:57:50;;;;;;;7.10;4.87;;;12.50;46.70;;;;;;5034365;28;20830;-74
2021/12/21 13:00:37;;;;;;;8.80;4.60;;;13.90;41.70;;;;;;5017432;28;20988;-74
2021/12/21 13:03:33;;;;;;;10.73;4.87;;;15.10;36.80;;;;;;5040301;28;20394;-74
2021/12/21 13:06:20;;;;;;;9.60;4.60;;;15.60;35.70;;;;;;5032062;28;20454;-74
2021/12/21 13:09:08;;;;;;;8.77;4.33;;;15.40;34.70;;;;;;5025221;28;20508;-74
2021/12/21 13:11:54;;;;;;;8.77;4.50;;;14.20;35.90;;;;;;5025118;28;20418;-74
2021/12/21 13:14:39;;;;;;;12.63;5.37;;;12.10;39.00;;;;;;5048853;28;20508;-74
2021/12/21 13:17:26;;;;;;;15.20;5.10;;;10.60;43.30;;;;;;5035774;28;20427;-73
2021/12/21 13:20:12;;;;;;;5.93;4.47;;;9.10;51.10;;;;;;5028016;28;20475;-73
2021/12/21 13:23:09;;;;;;;14.47;6.10;;;7.90;60.10;;;;;;5028808;28;20427;-73
2021/12/21 13:25:57;;;;;;;11.97;4.90;;;6.80;69.40;;;;;;5036666;28;21032;-73
2021/12/21 13:28:47;;;;;;;11.70;5.30;;;6.10;75.50;;;;;;5026042;28;20491;-73
2021/12/21 13:31:35;;;;;;;10.50;5.07;;;5.60;83.90;;;;;;5030569;28;20439;-73
2021/12/21 13:34:23;;;;;;;11.13;5.35;;;5.30;88.30;;;;;;5024169;28;20232;-73
2021/12/21 13:37:13;;;;;;;10.65;5.45;;;5.10;89.70;;;;;;5036810;28;20208;-73
2021/12/21 13:40:01;;;;;;;12.45;4.78;;;5.00;92.10;;;;;;5030943;28;20250;-73
2021/12/21 13:42:47;;;;;;;7.13;4.70;;;4.80;93.20;;;;;;5029949;28;20203;-73
2021/12/21 13:45:33;;;;;;;9.82;5.05;;;4.70;95.90;;;;;;5034597;28;20355;-74
2021/12/21 13:48:18;;;;;;;9.93;4.75;;;4.50;97.80;;;;;;5022316;28;20349;-73
2021/12/21 13:51:14;;;;;;;13.02;5.93;;;4.50;99.00;;;;;;5029053;28;20196;-73
2021/12/21 13:54:00;;;;;;;7.88;5.38;;;4.40;99.50;;;;;;5036993;28;20220;-72
2021/12/21 13:56:46;;;;;;;11.15;5.13;;;4.30;99.90;;;;;;5045170;28;20206;-72
2021/12/21 13:59:37;;;;;;;8.05;5.20;;;4.30;99.90;;;;;;5034702;28;20209;-72
2021/12/21 14:02:30;;;;;;;10.48;5.50;;;4.30;99.90;;;;;;5037260;28;20205;-72
2021/12/21 14:05:19;;;;;;;9.23;6.45;;;4.20;99.90;;;;;;5060730;22;20258;-76
2021/12/21 14:08:06;;;;;;;10.82;6.15;;;4.10;99.90;;;;;;5057618;28;20209;-76
2021/12/21 14:10:54;;;;;;;15.23;5.65;;;4.10;99.90;;;;;;5063653;28;20200;-78
2021/12/21 14:13:43;;;;;;;8.48;5.90;;;4.10;99.90;;;;;;5058105;28;20201;-78
2021/12/21 14:16:31;;;;;;;8.45;5.47;;;4.10;99.90;;;;;;5049515;28;20218;-79
2021/12/21 14:19:19;;;;;;;10.18;6.05;;;4.00;99.90;;;;;;5034390;28;20224;-77
2021/12/21 14:22:05;;;;;;;7.72;4.40;;;4.00;99.90;;;;;;5030653;28;20233;-79
2021/12/21 14:24:52;;;;;;;7.05;4.75;;;3.90;99.90;;;;;;5039723;28;20304;-78
2021/12/21 14:27:38;;;;;;;5.82;4.25;;;3.90;99.90;;;;;;5041672;28;20197;-76
2021/12/21 14:30:23;;;;;;;11.57;5.47;;;3.80;99.90;;;;;;5036299;28;20562;-77
2021/12/21 14:33:21;;;;;;;10.77;4.70;;;3.80;99.90;;;;;;5045161;28;20668;-77
2021/12/21 14:36:09;;;;;;;8.60;4.63;;;3.80;99.90;;;;;;5035800;28;20201;-77
2021/12/21 14:38:57;;;;;;;6.28;4.95;;;3.80;99.90;;;;;;5035034;28;20228;-77
2021/12/21 14:41:47;;;;;;;10.65;4.50;;;3.70;99.90;;;;;;5038481;28;20213;-79
2021/12/21 14:44:41;;;;;;;11.55;4.72;;;3.60;99.90;;;;;;5018747;28;20705;-77
2021/12/21 14:47:29;;;;;;;5.97;4.10;;;3.50;99.90;;;;;;5024369;28;20260;-77
2021/12/21 14:50:16;;;;;;;7.07;4.22;;;3.50;99.90;;;;;;5017713;28;20210;-77
2021/12/21 14:53:02;;;;;;;6.70;4.28;;;3.50;99.90;;;;;;5033203;28;20196;-77
2021/12/21 14:55:49;;;;;;;10.25;4.85;;;3.40;99.90;;;;;;5038315;28;20353;-77